sensor_id;sensor_type;location;lat;lon;timestamp;P1;durP1;ratioP1;P2;durP2;ratioP2
16346;SDS011;8283;48.504;13.734;2022-12-18T00:02:22;12.10;;;5.95;;
16346;SDS011;8283;48.504;13.734;2022-12-18T00:05:07;12.73;;;5.45;;
16346;SDS011;8283;48.504;13.734;2022-12-18T00:07:51;15.40;;;5.60;;
16346;SDS011;8283;48.504;13.734;2022-12-18T00:10:35;11.95;;;4.95;;
16346;SDS011;8283;48.504;13.734;2022-12-18T00:13:20;12.52;;;5.70;;
16346;SDS011;8283;48.504;13.734;2022-12-18T00:16:05;14.70;;;5.20;;
16346;SDS011;8283;48.504;13.734;2022-12-18T00:18:52;11.32;;;5.40;;
16346;SDS011;8283;48.504;13.734;2022-12-18T00:21:38;13.30;;;5.45;;
16346;SDS011;8283;48.504;13.734;2022-12-18T00:24:22;9.98;;;4.80;;
16346;SDS011;8283;48.504;13.734;2022-12-18T00:27:07;13.32;;;5.65;;
16346;SDS011;8283;48.504;13.734;2022-12-18T00:29:52;13.82;;;5.78;;
16346;SDS011;8283;48.504;13.734;2022-12-18T00:32:36;13.23;;;5.43;;
16346;SDS011;8283;48.504;13.734;2022-12-18T00:35:21;11.68;;;5.47;;
16346;SDS011;8283;48.504;13.734;2022-12-18T00:38:05;10.23;;;4.93;;
16346;SDS011;8283;48.504;13.734;2022-12-18T00:40:50;12.63;;;5.85;;
16346;SDS011;8283;48.504;13.734;2022-12-18T00:43:35;10.75;;;4.90;;
16346;SDS011;8283;48.504;13.734;2022-12-18T00:46:20;13.57;;;5.63;;
16346;SDS011;8283;48.504;13.734;2022-12-18T00:49:06;9.63;;;5.57;;
16346;SDS011;8283;48.504;13.734;2022-12-18T00:51:51;9.90;;;5.20;;
16346;SDS011;8283;48.504;13.734;2022-12-18T00:54:35;13.57;;;5.53;;
16346;SDS011;8283;48.504;13.734;2022-12-18T00:57:20;14.27;;;6.85;;
16346;SDS011;8283;48.504;13.734;2022-12-18T01:00:05;18.42;;;7.22;;
16346;SDS011;8283;48.504;13.734;2022-12-18T01:02:52;14.18;;;6.00;;
16346;SDS011;8283;48.504;13.734;2022-12-18T01:05:38;13.05;;;5.60;;
16346;SDS011;8283;48.504;13.734;2022-12-18T01:08:24;16.75;;;6.85;;
16346;SDS011;8283;48.504;13.734;2022-12-18T01:11:10;15.07;;;6.47;;
16346;SDS011;8283;48.504;13.734;2022-12-18T01:13:56;15.50;;;6.75;;
16346;SDS011;8283;48.504;13.734;2022-12-18T01:16:43;13.43;;;5.80;;
16346;SDS011;8283;48.504;13.734;2022-12-18T01:19:27;11.90;;;5.32;;
16346;SDS011;8283;48.504;13.734;2022-12-18T01:22:12;18.27;;;7.15;;
16346;SDS011;8283;48.504;13.734;2022-12-18T01:24:56;17.88;;;7.93;;
16346;SDS011;8283;48.504;13.734;2022-12-18T01:27:40;19.95;;;7.72;;
16346;SDS011;8283;48.504;13.734;2022-12-18T01:30:24;20.55;;;7.95;;
16346;SDS011;8283;48.504;13.734;2022-12-18T01:33:10;13.60;;;6.78;;
16346;SDS011;8283;48.504;13.734;2022-12-18T01:35:54;10.60;;;5.32;;
16346;SDS011;8283;48.504;13.734;2022-12-18T01:38:38;11.30;;;5.43;;
16346;SDS011;8283;48.504;13.734;2022-12-18T01:41:24;12.18;;;5.35;;
16346;SDS011;8283;48.504;13.734;2022-12-18T01:50:49;10.32;;;5.00;;
16346;SDS011;8283;48.504;13.734;2022-12-18T01:53:33;11.82;;;4.20;;
16346;SDS011;8283;48.504;13.734;2022-12-18T01:56:19;10.75;;;4.25;;
16346;SDS011;8283;48.504;13.734;2022-12-18T01:59:06;11.98;;;4.93;;
16346;SDS011;8283;48.504;13.734;2022-12-18T02:01:54;9.50;;;4.38;;
16346;SDS011;8283;48.504;13.734;2022-12-18T02:04:39;8.55;;;5.47;;
16346;SDS011;8283;48.504;13.734;2022-12-18T02:10:26;10.30;;;5.35;;
16346;SDS011;8283;48.504;13.734;2022-12-18T02:14:06;11.52;;;5.82;;
16346;SDS011;8283;48.504;13.734;2022-12-18T02:16:59;12.18;;;4.72;;
16346;SDS011;8283;48.504;13.734;2022-12-18T02:25:59;8.35;;;4.40;;
16346;SDS011;8283;48.504;13.734;2022-12-18T02:28:48;11.00;;;4.80;;
16346;SDS011;8283;48.504;13.734;2022-12-18T02:31:45;11.00;;;4.97;;
16346;SDS011;8283;48.504;13.734;2022-12-18T02:34:37;9.63;;;4.35;;
16346;SDS011;8283;48.504;13.734;2022-12-18T02:37:25;11.43;;;4.22;;
16346;SDS011;8283;48.504;13.734;2022-12-18T02:40:11;13.40;;;5.78;;
16346;SDS011;8283;48.504;13.734;2022-12-18T02:43:31;12.15;;;4.60;;
16346;SDS011;8283;48.504;13.734;2022-12-18T02:46:24;10.30;;;5.03;;
16346;SDS011;8283;48.504;13.734;2022-12-18T02:55:39;16.02;;;5.53;;
16346;SDS011;8283;48.504;13.734;2022-12-18T03:01:58;11.88;;;4.75;;
16346;SDS011;8283;48.504;13.734;2022-12-18T03:04:52;9.70;;;4.68;;
16346;SDS011;8283;48.504;13.734;2022-12-18T03:08:06;13.20;;;5.22;;
16346;SDS011;8283;48.504;13.734;2022-12-18T03:11:01;13.60;;;5.22;;
16346;SDS011;8283;48.504;13.734;2022-12-18T03:13:52;12.00;;;5.50;;
16346;SDS011;8283;48.504;13.734;2022-12-18T03:16:41;13.27;;;5.30;;
16346;SDS011;8283;48.504;13.734;2022-12-18T03:19:29;14.82;;;6.13;;
16346;SDS011;8283;48.504;13.734;2022-12-18T03:22:19;10.32;;;5.07;;
16346;SDS011;8283;48.504;13.734;2022-12-18T03:25:09;16.17;;;6.10;;
16346;SDS011;8283;48.504;13.734;2022-12-18T03:27:56;14.00;;;5.80;;
16346;SDS011;8283;48.504;13.734;2022-12-18T03:30:44;12.30;;;5.95;;
16346;SDS011;8283;48.504;13.734;2022-12-18T03:33:34;12.52;;;5.72;;
16346;SDS011;8283;48.504;13.734;2022-12-18T03:36:29;15.07;;;6.20;;
16346;SDS011;8283;48.504;13.734;2022-12-18T03:39:14;14.00;;;5.80;;
16346;SDS011;8283;48.504;13.734;2022-12-18T03:42:06;10.82;;;4.53;;
16346;SDS011;8283;48.504;13.734;2022-12-18T03:45:18;10.05;;;5.13;;
16346;SDS011;8283;48.504;13.734;2022-12-18T03:50:56;14.52;;;5.97;;
16346;SDS011;8283;48.504;13.734;2022-12-18T03:56:47;11.25;;;5.35;;
16346;SDS011;8283;48.504;13.734;2022-12-18T03:59:38;10.77;;;5.82;;
16346;SDS011;8283;48.504;13.734;2022-12-18T04:02:24;10.13;;;4.65;;
16346;SDS011;8283;48.504;13.734;2022-12-18T04:05:09;11.68;;;4.85;;
16346;SDS011;8283;48.504;13.734;2022-12-18T04:07:58;11.13;;;5.80;;
16346;SDS011;8283;48.504;13.734;2022-12-18T04:10:43;11.07;;;5.93;;
16346;SDS011;8283;48.504;13.734;2022-12-18T04:13:28;11.15;;;5.20;;
16346;SDS011;8283;48.504;13.734;2022-12-18T04:16:17;12.27;;;5.22;;
16346;SDS011;8283;48.504;13.734;2022-12-18T04:19:03;14.27;;;5.18;;
16346;SDS011;8283;48.504;13.734;2022-12-18T04:21:53;12.52;;;5.07;;
16346;SDS011;8283;48.504;13.734;2022-12-18T04:24:38;11.93;;;5.63;;
16346;SDS011;8283;48.504;13.734;2022-12-18T04:30:15;10.32;;;4.93;;
16346;SDS011;8283;48.504;13.734;2022-12-18T04:32:59;12.60;;;5.18;;
16346;SDS011;8283;48.504;13.734;2022-12-18T04:35:45;12.55;;;4.90;;
16346;SDS011;8283;48.504;13.734;2022-12-18T04:38:30;10.82;;;4.75;;
16346;SDS011;8283;48.504;13.734;2022-12-18T04:44:09;12.75;;;4.30;;
16346;SDS011;8283;48.504;13.734;2022-12-18T04:46:54;15.95;;;6.60;;
16346;SDS011;8283;48.504;13.734;2022-12-18T04:49:39;11.73;;;5.57;;
16346;SDS011;8283;48.504;13.734;2022-12-18T04:52:24;12.05;;;4.50;;
16346;SDS011;8283;48.504;13.734;2022-12-18T04:55:08;10.15;;;4.57;;
16346;SDS011;8283;48.504;13.734;2022-12-18T04:57:53;10.82;;;5.30;;
16346;SDS011;8283;48.504;13.734;2022-12-18T05:00:37;12.38;;;5.82;;
16346;SDS011;8283;48.504;13.734;2022-12-18T05:03:21;11.10;;;5.40;;
16346;SDS011;8283;48.504;13.734;2022-12-18T05:06:06;13.68;;;5.15;;
16346;SDS011;8283;48.504;13.734;2022-12-18T05:08:51;14.88;;;6.28;;
16346;SDS011;8283;48.504;13.734;2022-12-18T05:11:35;10.20;;;4.97;;
16346;SDS011;8283;48.504;13.734;2022-12-18T05:14:20;9.73;;;4.45;;
16346;SDS011;8283;48.504;13.734;2022-12-18T05:17:04;8.65;;;4.82;;
16346;SDS011;8283;48.504;13.734;2022-12-18T05:19:48;8.25;;;4.20;;
16346;SDS011;8283;48.504;13.734;2022-12-18T05:22:33;10.88;;;5.38;;
16346;SDS011;8283;48.504;13.734;2022-12-18T05:25:18;9.70;;;3.92;;
16346;SDS011;8283;48.504;13.734;2022-12-18T05:28:03;9.07;;;4.30;;
16346;SDS011;8283;48.504;13.734;2022-12-18T05:30:51;11.18;;;5.13;;
16346;SDS011;8283;48.504;13.734;2022-12-18T05:33:38;8.25;;;4.00;;
16346;SDS011;8283;48.504;13.734;2022-12-18T05:36:22;12.13;;;5.82;;
16346;SDS011;8283;48.504;13.734;2022-12-18T05:39:07;9.55;;;5.20;;
16346;SDS011;8283;48.504;13.734;2022-12-18T05:41:52;12.63;;;6.00;;
16346;SDS011;8283;48.504;13.734;2022-12-18T05:44:36;11.18;;;5.57;;
16346;SDS011;8283;48.504;13.734;2022-12-18T05:47:20;11.45;;;5.43;;
16346;SDS011;8283;48.504;13.734;2022-12-18T05:50:04;21.23;;;8.98;;
16346;SDS011;8283;48.504;13.734;2022-12-18T05:52:50;12.57;;;6.70;;
16346;SDS011;8283;48.504;13.734;2022-12-18T05:55:35;10.75;;;5.70;;
16346;SDS011;8283;48.504;13.734;2022-12-18T05:58:21;22.38;;;10.02;;
16346;SDS011;8283;48.504;13.734;2022-12-18T06:01:10;24.30;;;9.68;;
16346;SDS011;8283;48.504;13.734;2022-12-18T06:03:54;14.70;;;6.18;;
16346;SDS011;8283;48.504;13.734;2022-12-18T06:06:39;9.57;;;4.85;;
16346;SDS011;8283;48.504;13.734;2022-12-18T06:09:24;9.77;;;4.03;;
16346;SDS011;8283;48.504;13.734;2022-12-18T06:12:08;17.65;;;6.05;;
16346;SDS011;8283;48.504;13.734;2022-12-18T06:14:53;11.68;;;5.15;;
16346;SDS011;8283;48.504;13.734;2022-12-18T06:17:37;8.10;;;4.10;;
16346;SDS011;8283;48.504;13.734;2022-12-18T06:20:21;10.32;;;4.55;;
16346;SDS011;8283;48.504;13.734;2022-12-18T06:23:06;10.55;;;5.15;;
16346;SDS011;8283;48.504;13.734;2022-12-18T06:25:50;17.35;;;8.35;;
16346;SDS011;8283;48.504;13.734;2022-12-18T06:28:35;21.75;;;10.18;;
16346;SDS011;8283;48.504;13.734;2022-12-18T06:31:20;21.08;;;10.65;;
16346;SDS011;8283;48.504;13.734;2022-12-18T06:34:04;15.65;;;8.43;;
16346;SDS011;8283;48.504;13.734;2022-12-18T06:36:49;11.75;;;6.60;;
16346;SDS011;8283;48.504;13.734;2022-12-18T06:39:33;15.07;;;7.18;;
16346;SDS011;8283;48.504;13.734;2022-12-18T06:42:17;10.90;;;5.53;;
16346;SDS011;8283;48.504;13.734;2022-12-18T06:45:02;12.05;;;5.40;;
16346;SDS011;8283;48.504;13.734;2022-12-18T06:47:47;10.30;;;4.45;;
16346;SDS011;8283;48.504;13.734;2022-12-18T06:50:31;10.40;;;4.90;;
16346;SDS011;8283;48.504;13.734;2022-12-18T06:53:15;12.82;;;4.38;;
16346;SDS011;8283;48.504;13.734;2022-12-18T06:56:04;8.90;;;4.25;;
16346;SDS011;8283;48.504;13.734;2022-12-18T06:58:50;9.15;;;3.53;;
16346;SDS011;8283;48.504;13.734;2022-12-18T07:01:35;6.93;;;3.53;;
16346;SDS011;8283;48.504;13.734;2022-12-18T07:04:19;11.55;;;4.72;;
16346;SDS011;8283;48.504;13.734;2022-12-18T07:07:03;11.32;;;3.83;;
16346;SDS011;8283;48.504;13.734;2022-12-18T07:09:49;8.45;;;4.28;;
16346;SDS011;8283;48.504;13.734;2022-12-18T07:12:34;8.00;;;3.28;;
16346;SDS011;8283;48.504;13.734;2022-12-18T07:15:19;8.30;;;4.00;;
16346;SDS011;8283;48.504;13.734;2022-12-18T07:18:03;10.02;;;5.15;;
16346;SDS011;8283;48.504;13.734;2022-12-18T07:20:48;19.77;;;7.07;;
16346;SDS011;8283;48.504;13.734;2022-12-18T07:23:33;11.73;;;4.90;;
16346;SDS011;8283;48.504;13.734;2022-12-18T07:26:19;14.10;;;6.07;;
16346;SDS011;8283;48.504;13.734;2022-12-18T07:29:04;8.25;;;3.63;;
16346;SDS011;8283;48.504;13.734;2022-12-18T07:31:49;9.10;;;4.18;;
16346;SDS011;8283;48.504;13.734;2022-12-18T07:34:33;7.53;;;3.47;;
16346;SDS011;8283;48.504;13.734;2022-12-18T07:37:18;9.50;;;3.03;;
16346;SDS011;8283;48.504;13.734;2022-12-18T07:40:02;9.68;;;3.60;;
16346;SDS011;8283;48.504;13.734;2022-12-18T07:42:47;5.75;;;2.88;;
16346;SDS011;8283;48.504;13.734;2022-12-18T07:45:31;6.03;;;3.33;;
16346;SDS011;8283;48.504;13.734;2022-12-18T07:48:15;7.43;;;3.22;;
16346;SDS011;8283;48.504;13.734;2022-12-18T07:51:00;8.65;;;3.05;;
16346;SDS011;8283;48.504;13.734;2022-12-18T07:53:46;4.30;;;2.63;;
16346;SDS011;8283;48.504;13.734;2022-12-18T07:56:31;7.80;;;3.15;;
16346;SDS011;8283;48.504;13.734;2022-12-18T07:59:15;7.28;;;3.20;;
16346;SDS011;8283;48.504;13.734;2022-12-18T08:02:00;7.93;;;3.22;;
16346;SDS011;8283;48.504;13.734;2022-12-18T08:04:44;6.75;;;2.80;;
16346;SDS011;8283;48.504;13.734;2022-12-18T08:07:28;8.50;;;2.95;;
16346;SDS011;8283;48.504;13.734;2022-12-18T08:10:13;6.93;;;2.90;;
16346;SDS011;8283;48.504;13.734;2022-12-18T08:12:57;8.68;;;3.15;;
16346;SDS011;8283;48.504;13.734;2022-12-18T08:15:41;20.15;;;6.80;;
16346;SDS011;8283;48.504;13.734;2022-12-18T08:18:25;7.55;;;3.25;;
16346;SDS011;8283;48.504;13.734;2022-12-18T08:21:14;8.10;;;3.97;;
16346;SDS011;8283;48.504;13.734;2022-12-18T08:24:05;6.60;;;2.78;;
16346;SDS011;8283;48.504;13.734;2022-12-18T08:26:49;9.93;;;3.30;;
16346;SDS011;8283;48.504;13.734;2022-12-18T08:29:34;7.85;;;3.08;;
16346;SDS011;8283;48.504;13.734;2022-12-18T08:32:18;8.70;;;2.90;;
16346;SDS011;8283;48.504;13.734;2022-12-18T08:35:03;5.22;;;3.50;;
16346;SDS011;8283;48.504;13.734;2022-12-18T08:37:47;5.88;;;3.10;;
16346;SDS011;8283;48.504;13.734;2022-12-18T08:40:32;6.72;;;2.97;;
16346;SDS011;8283;48.504;13.734;2022-12-18T08:43:17;6.38;;;3.20;;
16346;SDS011;8283;48.504;13.734;2022-12-18T08:46:20;6.18;;;2.78;;
16346;SDS011;8283;48.504;13.734;2022-12-18T08:49:06;6.25;;;2.85;;
16346;SDS011;8283;48.504;13.734;2022-12-18T08:51:54;8.18;;;3.45;;
16346;SDS011;8283;48.504;13.734;2022-12-18T08:54:38;7.30;;;3.35;;
16346;SDS011;8283;48.504;13.734;2022-12-18T08:57:23;5.35;;;2.67;;
16346;SDS011;8283;48.504;13.734;2022-12-18T09:00:07;4.18;;;2.63;;
16346;SDS011;8283;48.504;13.734;2022-12-18T09:02:52;5.22;;;2.55;;
16346;SDS011;8283;48.504;13.734;2022-12-18T09:05:36;6.15;;;3.05;;
16346;SDS011;8283;48.504;13.734;2022-12-18T09:08:21;5.25;;;2.17;;
16346;SDS011;8283;48.504;13.734;2022-12-18T09:11:09;4.65;;;2.38;;
16346;SDS011;8283;48.504;13.734;2022-12-18T09:13:57;5.05;;;2.22;;
16346;SDS011;8283;48.504;13.734;2022-12-18T09:16:44;8.20;;;3.22;;
16346;SDS011;8283;48.504;13.734;2022-12-18T09:19:28;4.68;;;2.28;;
16346;SDS011;8283;48.504;13.734;2022-12-18T09:22:12;4.45;;;2.10;;
16346;SDS011;8283;48.504;13.734;2022-12-18T09:24:57;5.40;;;2.17;;
16346;SDS011;8283;48.504;13.734;2022-12-18T09:27:41;5.30;;;2.83;;
16346;SDS011;8283;48.504;13.734;2022-12-18T09:30:26;7.25;;;2.70;;
16346;SDS011;8283;48.504;13.734;2022-12-18T09:33:10;4.47;;;2.25;;
16346;SDS011;8283;48.504;13.734;2022-12-18T09:35:55;4.28;;;1.85;;
16346;SDS011;8283;48.504;13.734;2022-12-18T09:38:39;6.03;;;2.95;;
16346;SDS011;8283;48.504;13.734;2022-12-18T09:41:32;4.28;;;2.55;;
16346;SDS011;8283;48.504;13.734;2022-12-18T09:44:36;5.03;;;2.67;;
16346;SDS011;8283;48.504;13.734;2022-12-18T09:47:25;3.60;;;2.38;;
16346;SDS011;8283;48.504;13.734;2022-12-18T09:53:18;5.30;;;2.33;;
16346;SDS011;8283;48.504;13.734;2022-12-18T09:56:06;3.38;;;1.88;;
16346;SDS011;8283;48.504;13.734;2022-12-18T09:59:00;4.55;;;2.63;;
16346;SDS011;8283;48.504;13.734;2022-12-18T10:01:46;3.55;;;2.50;;
16346;SDS011;8283;48.504;13.734;2022-12-18T10:04:30;2.65;;;2.03;;
16346;SDS011;8283;48.504;13.734;2022-12-18T10:07:21;3.85;;;2.10;;
16346;SDS011;8283;48.504;13.734;2022-12-18T10:10:38;6.05;;;2.47;;
16346;SDS011;8283;48.504;13.734;2022-12-18T10:13:41;5.40;;;2.40;;
16346;SDS011;8283;48.504;13.734;2022-12-18T10:17:22;3.20;;;2.10;;
16346;SDS011;8283;48.504;13.734;2022-12-18T10:19:55;4.47;;;2.65;;
16346;SDS011;8283;48.504;13.734;2022-12-18T10:22:53;3.95;;;2.22;;
16346;SDS011;8283;48.504;13.734;2022-12-18T10:26:03;3.70;;;2.22;;
16346;SDS011;8283;48.504;13.734;2022-12-18T10:28:49;4.10;;;2.30;;
16346;SDS011;8283;48.504;13.734;2022-12-18T10:31:36;4.07;;;2.70;;
16346;SDS011;8283;48.504;13.734;2022-12-18T10:34:20;3.78;;;2.65;;
16346;SDS011;8283;48.504;13.734;2022-12-18T10:37:06;4.53;;;2.90;;
16346;SDS011;8283;48.504;13.734;2022-12-18T10:40:13;4.35;;;2.50;;
16346;SDS011;8283;48.504;13.734;2022-12-18T10:43:34;3.60;;;2.05;;
16346;SDS011;8283;48.504;13.734;2022-12-18T10:49:07;4.03;;;2.15;;
16346;SDS011;8283;48.504;13.734;2022-12-18T10:55:13;6.00;;;2.97;;
16346;SDS011;8283;48.504;13.734;2022-12-18T10:58:15;8.43;;;4.60;;
16346;SDS011;8283;48.504;13.734;2022-12-18T11:01:14;10.95;;;5.18;;
16346;SDS011;8283;48.504;13.734;2022-12-18T11:04:01;8.57;;;3.90;;
16346;SDS011;8283;48.504;13.734;2022-12-18T11:06:53;8.77;;;4.03;;
16346;SDS011;8283;48.504;13.734;2022-12-18T11:09:43;6.47;;;3.33;;
16346;SDS011;8283;48.504;13.734;2022-12-18T11:12:42;4.70;;;2.10;;
16346;SDS011;8283;48.504;13.734;2022-12-18T11:15:27;5.95;;;3.25;;
16346;SDS011;8283;48.504;13.734;2022-12-18T11:21:12;4.32;;;2.97;;
16346;SDS011;8283;48.504;13.734;2022-12-18T11:23:58;6.20;;;2.70;;
16346;SDS011;8283;48.504;13.734;2022-12-18T11:26:42;5.53;;;3.10;;
16346;SDS011;8283;48.504;13.734;2022-12-18T11:29:37;3.70;;;2.58;;
16346;SDS011;8283;48.504;13.734;2022-12-18T11:35:18;3.70;;;2.53;;
16346;SDS011;8283;48.504;13.734;2022-12-18T11:38:19;4.38;;;2.55;;
16346;SDS011;8283;48.504;13.734;2022-12-18T11:41:29;6.45;;;3.28;;
16346;SDS011;8283;48.504;13.734;2022-12-18T11:44:42;8.02;;;2.95;;
16346;SDS011;8283;48.504;13.734;2022-12-18T11:47:31;5.43;;;2.95;;
16346;SDS011;8283;48.504;13.734;2022-12-18T11:50:26;5.15;;;3.30;;
16346;SDS011;8283;48.504;13.734;2022-12-18T11:53:17;4.55;;;2.85;;
16346;SDS011;8283;48.504;13.734;2022-12-18T12:02:17;4.93;;;2.95;;
16346;SDS011;8283;48.504;13.734;2022-12-18T12:17:39;5.20;;;2.42;;
16346;SDS011;8283;48.504;13.734;2022-12-18T12:20:52;5.03;;;2.78;;
16346;SDS011;8283;48.504;13.734;2022-12-18T12:26:57;2.55;;;2.10;;
16346;SDS011;8283;48.504;13.734;2022-12-18T12:35:48;3.95;;;2.65;;
16346;SDS011;8283;48.504;13.734;2022-12-18T12:38:41;5.80;;;4.10;;
16346;SDS011;8283;48.504;13.734;2022-12-18T12:41:30;4.95;;;2.70;;
16346;SDS011;8283;48.504;13.734;2022-12-18T12:44:40;3.60;;;2.42;;
16346;SDS011;8283;48.504;13.734;2022-12-18T12:47:30;4.30;;;2.80;;
16346;SDS011;8283;48.504;13.734;2022-12-18T12:50:19;3.75;;;2.63;;
16346;SDS011;8283;48.504;13.734;2022-12-18T12:53:09;3.80;;;2.75;;
16346;SDS011;8283;48.504;13.734;2022-12-18T12:56:08;7.05;;;2.67;;
16346;SDS011;8283;48.504;13.734;2022-12-18T13:02:05;4.05;;;2.80;;
16346;SDS011;8283;48.504;13.734;2022-12-18T13:08:09;3.75;;;2.40;;
16346;SDS011;8283;48.504;13.734;2022-12-18T13:10:55;5.22;;;3.42;;
16346;SDS011;8283;48.504;13.734;2022-12-18T13:13:59;4.82;;;2.83;;
16346;SDS011;8283;48.504;13.734;2022-12-18T13:16:43;5.25;;;2.75;;
16346;SDS011;8283;48.504;13.734;2022-12-18T13:19:28;4.82;;;3.38;;
16346;SDS011;8283;48.504;13.734;2022-12-18T13:22:35;3.88;;;2.92;;
16346;SDS011;8283;48.504;13.734;2022-12-18T13:28:13;4.80;;;3.05;;
16346;SDS011;8283;48.504;13.734;2022-12-18T13:31:00;4.90;;;2.88;;
16346;SDS011;8283;48.504;13.734;2022-12-18T13:33:45;6.75;;;3.95;;
16346;SDS011;8283;48.504;13.734;2022-12-18T13:36:33;4.53;;;2.88;;
16346;SDS011;8283;48.504;13.734;2022-12-18T13:44:50;6.07;;;3.38;;
16346;SDS011;8283;48.504;13.734;2022-12-18T13:47:35;7.22;;;4.30;;
16346;SDS011;8283;48.504;13.734;2022-12-18T13:50:24;7.80;;;4.38;;
16346;SDS011;8283;48.504;13.734;2022-12-18T13:53:15;4.95;;;3.53;;
16346;SDS011;8283;48.504;13.734;2022-12-18T13:56:06;7.18;;;3.60;;
16346;SDS011;8283;48.504;13.734;2022-12-18T13:59:26;9.55;;;6.07;;
16346;SDS011;8283;48.504;13.734;2022-12-18T14:02:13;8.85;;;6.00;;
16346;SDS011;8283;48.504;13.734;2022-12-18T14:05:00;6.82;;;4.20;;
16346;SDS011;8283;48.504;13.734;2022-12-18T14:07:44;10.38;;;5.20;;
16346;SDS011;8283;48.504;13.734;2022-12-18T14:10:28;6.15;;;4.43;;
16346;SDS011;8283;48.504;13.734;2022-12-18T14:16:23;7.40;;;4.00;;
16346;SDS011;8283;48.504;13.734;2022-12-18T14:19:09;7.40;;;3.70;;
16346;SDS011;8283;48.504;13.734;2022-12-18T14:22:00;7.15;;;3.83;;
16346;SDS011;8283;48.504;13.734;2022-12-18T14:24:44;4.35;;;3.08;;
16346;SDS011;8283;48.504;13.734;2022-12-18T14:27:29;11.05;;;5.32;;
16346;SDS011;8283;48.504;13.734;2022-12-18T14:36:02;8.07;;;4.25;;
16346;SDS011;8283;48.504;13.734;2022-12-18T14:38:55;8.75;;;4.53;;
16346;SDS011;8283;48.504;13.734;2022-12-18T14:41:41;9.98;;;5.05;;
16346;SDS011;8283;48.504;13.734;2022-12-18T14:44:26;9.25;;;5.20;;
16346;SDS011;8283;48.504;13.734;2022-12-18T14:47:13;9.35;;;4.70;;
16346;SDS011;8283;48.504;13.734;2022-12-18T14:50:00;7.70;;;5.07;;
16346;SDS011;8283;48.504;13.734;2022-12-18T14:52:44;12.05;;;5.25;;
16346;SDS011;8283;48.504;13.734;2022-12-18T14:55:29;9.15;;;4.55;;
16346;SDS011;8283;48.504;13.734;2022-12-18T14:58:14;10.73;;;5.22;;
16346;SDS011;8283;48.504;13.734;2022-12-18T15:01:01;9.80;;;4.75;;
16346;SDS011;8283;48.504;13.734;2022-12-18T15:03:46;8.63;;;5.15;;
16346;SDS011;8283;48.504;13.734;2022-12-18T15:06:34;7.35;;;4.15;;
16346;SDS011;8283;48.504;13.734;2022-12-18T15:09:22;10.05;;;5.07;;
16346;SDS011;8283;48.504;13.734;2022-12-18T15:13:17;10.82;;;4.93;;
16346;SDS011;8283;48.504;13.734;2022-12-18T15:18:18;8.23;;;5.07;;
16346;SDS011;8283;48.504;13.734;2022-12-18T15:21:08;4.93;;;4.07;;
16346;SDS011;8283;48.504;13.734;2022-12-18T15:23:55;7.78;;;4.43;;
16346;SDS011;8283;48.504;13.734;2022-12-18T15:26:41;10.30;;;4.75;;
16346;SDS011;8283;48.504;13.734;2022-12-18T15:29:26;8.18;;;4.55;;
16346;SDS011;8283;48.504;13.734;2022-12-18T15:32:17;9.40;;;5.35;;
16346;SDS011;8283;48.504;13.734;2022-12-18T15:37:54;8.07;;;4.55;;
16346;SDS011;8283;48.504;13.734;2022-12-18T15:40:39;9.82;;;4.78;;
16346;SDS011;8283;48.504;13.734;2022-12-18T15:43:23;9.32;;;5.53;;
16346;SDS011;8283;48.504;13.734;2022-12-18T15:46:18;7.75;;;4.57;;
16346;SDS011;8283;48.504;13.734;2022-12-18T15:49:04;13.88;;;6.53;;
16346;SDS011;8283;48.504;13.734;2022-12-18T15:51:52;12.05;;;6.40;;
16346;SDS011;8283;48.504;13.734;2022-12-18T15:54:40;12.50;;;5.45;;
16346;SDS011;8283;48.504;13.734;2022-12-18T15:57:43;11.00;;;6.00;;
16346;SDS011;8283;48.504;13.734;2022-12-18T16:00:27;9.68;;;5.55;;
16346;SDS011;8283;48.504;13.734;2022-12-18T16:03:12;9.45;;;4.95;;
16346;SDS011;8283;48.504;13.734;2022-12-18T16:05:56;11.88;;;5.75;;
16346;SDS011;8283;48.504;13.734;2022-12-18T16:08:41;11.13;;;6.22;;
16346;SDS011;8283;48.504;13.734;2022-12-18T16:11:27;9.10;;;5.18;;
16346;SDS011;8283;48.504;13.734;2022-12-18T16:14:23;10.73;;;5.15;;
16346;SDS011;8283;48.504;13.734;2022-12-18T16:17:10;9.40;;;5.22;;
16346;SDS011;8283;48.504;13.734;2022-12-18T16:19:56;12.73;;;6.30;;
16346;SDS011;8283;48.504;13.734;2022-12-18T16:22:41;8.60;;;4.68;;
16346;SDS011;8283;48.504;13.734;2022-12-18T16:25:28;12.90;;;5.80;;
16346;SDS011;8283;48.504;13.734;2022-12-18T16:28:12;9.02;;;4.80;;
16346;SDS011;8283;48.504;13.734;2022-12-18T16:30:56;14.43;;;7.82;;
16346;SDS011;8283;48.504;13.734;2022-12-18T16:33:41;8.50;;;5.03;;
16346;SDS011;8283;48.504;13.734;2022-12-18T16:36:25;10.52;;;5.53;;
16346;SDS011;8283;48.504;13.734;2022-12-18T16:39:09;12.75;;;5.55;;
16346;SDS011;8283;48.504;13.734;2022-12-18T16:41:54;11.88;;;6.18;;
16346;SDS011;8283;48.504;13.734;2022-12-18T16:44:38;13.93;;;5.80;;
16346;SDS011;8283;48.504;13.734;2022-12-18T16:47:23;9.80;;;5.70;;
16346;SDS011;8283;48.504;13.734;2022-12-18T16:50:07;11.48;;;6.82;;
16346;SDS011;8283;48.504;13.734;2022-12-18T16:52:52;13.10;;;5.78;;
16346;SDS011;8283;48.504;13.734;2022-12-18T16:55:36;8.18;;;5.05;;
16346;SDS011;8283;48.504;13.734;2022-12-18T16:58:21;12.90;;;6.78;;
16346;SDS011;8283;48.504;13.734;2022-12-18T17:01:11;13.27;;;6.40;;
16346;SDS011;8283;48.504;13.734;2022-12-18T17:03:57;10.50;;;6.07;;
16346;SDS011;8283;48.504;13.734;2022-12-18T17:06:44;11.15;;;5.75;;
16346;SDS011;8283;48.504;13.734;2022-12-18T17:09:34;12.75;;;6.57;;
16346;SDS011;8283;48.504;13.734;2022-12-18T17:12:19;11.90;;;5.60;;
16346;SDS011;8283;48.504;13.734;2022-12-18T17:15:03;10.00;;;5.38;;
16346;SDS011;8283;48.504;13.734;2022-12-18T17:17:48;11.15;;;5.53;;
16346;SDS011;8283;48.504;13.734;2022-12-18T17:20:33;10.85;;;5.50;;
16346;SDS011;8283;48.504;13.734;2022-12-18T17:23:17;7.85;;;4.78;;
16346;SDS011;8283;48.504;13.734;2022-12-18T17:26:01;10.63;;;5.95;;
16346;SDS011;8283;48.504;13.734;2022-12-18T17:28:48;11.23;;;6.05;;
16346;SDS011;8283;48.504;13.734;2022-12-18T17:31:33;12.15;;;5.88;;
16346;SDS011;8283;48.504;13.734;2022-12-18T17:34:18;18.05;;;9.52;;
16346;SDS011;8283;48.504;13.734;2022-12-18T17:37:04;15.38;;;7.05;;
16346;SDS011;8283;48.504;13.734;2022-12-18T17:39:49;10.23;;;6.10;;
16346;SDS011;8283;48.504;13.734;2022-12-18T17:42:33;12.20;;;5.63;;
16346;SDS011;8283;48.504;13.734;2022-12-18T17:45:17;10.30;;;5.57;;
16346;SDS011;8283;48.504;13.734;2022-12-18T17:48:03;10.95;;;4.95;;
16346;SDS011;8283;48.504;13.734;2022-12-18T17:50:48;12.15;;;6.63;;
16346;SDS011;8283;48.504;13.734;2022-12-18T17:53:33;12.38;;;6.90;;
16346;SDS011;8283;48.504;13.734;2022-12-18T17:56:18;9.57;;;5.10;;
16346;SDS011;8283;48.504;13.734;2022-12-18T17:59:04;8.15;;;4.80;;
16346;SDS011;8283;48.504;13.734;2022-12-18T18:01:50;10.10;;;5.75;;
16346;SDS011;8283;48.504;13.734;2022-12-18T18:04:34;9.20;;;5.97;;
16346;SDS011;8283;48.504;13.734;2022-12-18T18:07:18;10.85;;;5.00;;
16346;SDS011;8283;48.504;13.734;2022-12-18T18:10:02;9.68;;;5.45;;
16346;SDS011;8283;48.504;13.734;2022-12-18T18:12:48;8.23;;;5.00;;
16346;SDS011;8283;48.504;13.734;2022-12-18T18:15:55;12.07;;;5.60;;
16346;SDS011;8283;48.504;13.734;2022-12-18T18:18:40;9.82;;;5.70;;
16346;SDS011;8283;48.504;13.734;2022-12-18T18:21:25;8.75;;;5.30;;
16346;SDS011;8283;48.504;13.734;2022-12-18T18:24:10;10.23;;;5.45;;
16346;SDS011;8283;48.504;13.734;2022-12-18T18:26:56;12.40;;;5.68;;
16346;SDS011;8283;48.504;13.734;2022-12-18T18:29:43;9.70;;;4.75;;
16346;SDS011;8283;48.504;13.734;2022-12-18T18:32:28;9.52;;;5.45;;
16346;SDS011;8283;48.504;13.734;2022-12-18T18:35:12;8.38;;;5.32;;